sensor_id;sensor_type;location;lat;lon;timestamp;temperature;humidity
18593;DHT22;9426;54.118;17.948;2022-08-19T00:01:55;19.20;99.90
18593;DHT22;9426;54.118;17.948;2022-08-19T00:07:20;19.20;99.90
18593;DHT22;9426;54.118;17.948;2022-08-19T00:12:45;19.20;99.90
18593;DHT22;9426;54.118;17.948;2022-08-19T00:18:08;19.20;99.90
18593;DHT22;9426;54.118;17.948;2022-08-19T00:23:32;19.20;99.90
18593;DHT22;9426;54.118;17.948;2022-08-19T00:28:58;19.00;99.90
18593;DHT22;9426;54.118;17.948;2022-08-19T00:34:22;19.00;99.90
18593;DHT22;9426;54.118;17.948;2022-08-19T00:39:46;18.90;99.90
18593;DHT22;9426;54.118;17.948;2022-08-19T00:45:15;18.90;99.90
18593;DHT22;9426;54.118;17.948;2022-08-19T00:50:41;18.80;99.90
18593;DHT22;9426;54.118;17.948;2022-08-19T00:56:06;18.70;99.90
18593;DHT22;9426;54.118;17.948;2022-08-19T01:01:31;18.60;99.90
18593;DHT22;9426;54.118;17.948;2022-08-19T01:06:56;18.60;99.90
18593;DHT22;9426;54.118;17.948;2022-08-19T01:12:21;18.60;99.90
18593;DHT22;9426;54.118;17.948;2022-08-19T01:17:46;18.50;99.90
18593;DHT22;9426;54.118;17.948;2022-08-19T01:23:13;18.50;99.90
18593;DHT22;9426;54.118;17.948;2022-08-19T01:28:37;18.50;99.90
18593;DHT22;9426;54.118;17.948;2022-08-19T01:34:01;18.50;99.90
18593;DHT22;9426;54.118;17.948;2022-08-19T01:39:26;18.40;99.90
18593;DHT22;9426;54.118;17.948;2022-08-19T01:44:50;18.40;99.90
18593;DHT22;9426;54.118;17.948;2022-08-19T01:50:13;18.40;99.90
18593;DHT22;9426;54.118;17.948;2022-08-19T01:55:40;18.40;99.90
18593;DHT22;9426;54.118;17.948;2022-08-19T02:01:05;18.40;99.90
18593;DHT22;9426;54.118;17.948;2022-08-19T02:06:29;18.40;99.90
18593;DHT22;9426;54.118;17.948;2022-08-19T02:11:54;18.30;99.90
18593;DHT22;9426;54.118;17.948;2022-08-19T02:17:17;18.30;99.90
18593;DHT22;9426;54.118;17.948;2022-08-19T02:22:41;18.30;99.90
18593;DHT22;9426;54.118;17.948;2022-08-19T02:28:06;18.30;99.90
18593;DHT22;9426;54.118;17.948;2022-08-19T02:33:29;18.40;99.90
18593;DHT22;9426;54.118;17.948;2022-08-19T02:38:53;18.40;99.90
18593;DHT22;9426;54.118;17.948;2022-08-19T02:44:18;18.30;99.90
18593;DHT22;9426;54.118;17.948;2022-08-19T02:49:41;18.30;99.90
18593;DHT22;9426;54.118;17.948;2022-08-19T02:55:05;18.40;99.90
18593;DHT22;9426;54.118;17.948;2022-08-19T03:00:30;18.50;99.90
18593;DHT22;9426;54.118;17.948;2022-08-19T03:06:07;18.60;99.90
18593;DHT22;9426;54.118;17.948;2022-08-19T03:11:32;18.70;99.90
18593;DHT22;9426;54.118;17.948;2022-08-19T03:16:57;18.80;99.90
18593;DHT22;9426;54.118;17.948;2022-08-19T03:22:21;18.80;99.90
18593;DHT22;9426;54.118;17.948;2022-08-19T03:27:44;18.70;99.90
18593;DHT22;9426;54.118;17.948;2022-08-19T03:33:12;18.70;99.90
18593;DHT22;9426;54.118;17.948;2022-08-19T03:38:37;18.70;99.90
18593;DHT22;9426;54.118;17.948;2022-08-19T03:44:01;18.70;99.90
18593;DHT22;9426;54.118;17.948;2022-08-19T03:49:27;18.80;99.90
18593;DHT22;9426;54.118;17.948;2022-08-19T03:54:51;18.80;99.90
18593;DHT22;9426;54.118;17.948;2022-08-19T04:00:15;19.00;99.90
18593;DHT22;9426;54.118;17.948;2022-08-19T04:05:40;19.20;99.90
18593;DHT22;9426;54.118;17.948;2022-08-19T04:11:07;19.40;99.90
18593;DHT22;9426;54.118;17.948;2022-08-19T04:16:31;19.50;99.90
18593;DHT22;9426;54.118;17.948;2022-08-19T04:21:56;19.60;99.90
18593;DHT22;9426;54.118;17.948;2022-08-19T04:27:19;19.80;99.90
18593;DHT22;9426;54.118;17.948;2022-08-19T04:32:43;19.90;99.90
18593;DHT22;9426;54.118;17.948;2022-08-19T04:38:08;20.10;99.90
18593;DHT22;9426;54.118;17.948;2022-08-19T04:43:32;20.30;99.90
18593;DHT22;9426;54.118;17.948;2022-08-19T04:48:56;20.50;99.90
18593;DHT22;9426;54.118;17.948;2022-08-19T04:54:23;20.70;99.90
18593;DHT22;9426;54.118;17.948;2022-08-19T04:59:46;20.90;99.90
18593;DHT22;9426;54.118;17.948;2022-08-19T05:05:10;21.00;99.90
18593;DHT22;9426;54.118;17.948;2022-08-19T05:10:36;21.10;99.90
18593;DHT22;9426;54.118;17.948;2022-08-19T05:15:59;21.40;99.90
18593;DHT22;9426;54.118;17.948;2022-08-19T05:21:23;21.60;99.90
18593;DHT22;9426;54.118;17.948;2022-08-19T05:27:06;21.70;99.90
18593;DHT22;9426;54.118;17.948;2022-08-19T05:32:29;21.90;99.90
18593;DHT22;9426;54.118;17.948;2022-08-19T05:37:52;22.20;99.90
18593;DHT22;9426;54.118;17.948;2022-08-19T05:43:18;22.50;99.90
18593;DHT22;9426;54.118;17.948;2022-08-19T05:48:41;22.70;99.90
18593;DHT22;9426;54.118;17.948;2022-08-19T05:54:05;22.60;99.90
18593;DHT22;9426;54.118;17.948;2022-08-19T05:59:31;22.70;99.90
18593;DHT22;9426;54.118;17.948;2022-08-19T06:04:55;23.00;99.90
18593;DHT22;9426;54.118;17.948;2022-08-19T06:10:19;23.20;99.90
18593;DHT22;9426;54.118;17.948;2022-08-19T06:15:45;23.40;99.90
18593;DHT22;9426;54.118;17.948;2022-08-19T06:21:08;23.60;99.90
18593;DHT22;9426;54.118;17.948;2022-08-19T06:26:31;23.80;99.90
18593;DHT22;9426;54.118;17.948;2022-08-19T06:31:58;23.90;99.90
18593;DHT22;9426;54.118;17.948;2022-08-19T06:37:22;24.10;99.90
18593;DHT22;9426;54.118;17.948;2022-08-19T06:42:45;24.30;99.90
18593;DHT22;9426;54.118;17.948;2022-08-19T06:48:10;24.20;99.90
18593;DHT22;9426;54.118;17.948;2022-08-19T06:53:34;24.10;99.90
18593;DHT22;9426;54.118;17.948;2022-08-19T06:58:57;24.50;99.90
18593;DHT22;9426;54.118;17.948;2022-08-19T07:04:24;24.70;99.90
18593;DHT22;9426;54.118;17.948;2022-08-19T07:09:49;25.20;99.90
18593;DHT22;9426;54.118;17.948;2022-08-19T07:15:14;24.90;99.90
18593;DHT22;9426;54.118;17.948;2022-08-19T07:20:40;25.10;99.90
18593;DHT22;9426;54.118;17.948;2022-08-19T07:26:05;25.40;99.90
18593;DHT22;9426;54.118;17.948;2022-08-19T07:31:29;26.10;99.90
18593;DHT22;9426;54.118;17.948;2022-08-19T07:36:54;26.30;99.90
18593;DHT22;9426;54.118;17.948;2022-08-19T07:42:17;26.20;99.90
18593;DHT22;9426;54.118;17.948;2022-08-19T07:47:43;26.30;99.90
18593;DHT22;9426;54.118;17.948;2022-08-19T07:53:08;26.40;99.90
18593;DHT22;9426;54.118;17.948;2022-08-19T07:58:33;26.60;99.90
18593;DHT22;9426;54.118;17.948;2022-08-19T08:03:57;26.40;99.90
18593;DHT22;9426;54.118;17.948;2022-08-19T08:09:42;26.40;99.90
18593;DHT22;9426;54.118;17.948;2022-08-19T08:15:09;26.60;99.90
18593;DHT22;9426;54.118;17.948;2022-08-19T08:20:33;26.80;99.90
18593;DHT22;9426;54.118;17.948;2022-08-19T08:25:58;27.00;99.90
18593;DHT22;9426;54.118;17.948;2022-08-19T08:31:24;27.20;99.90
18593;DHT22;9426;54.118;17.948;2022-08-19T08:36:47;27.40;99.90
18593;DHT22;9426;54.118;17.948;2022-08-19T08:42:18;27.70;99.90
18593;DHT22;9426;54.118;17.948;2022-08-19T08:47:47;27.90;99.90
18593;DHT22;9426;54.118;17.948;2022-08-19T08:53:15;28.20;99.90
18593;DHT22;9426;54.118;17.948;2022-08-19T08:58:49;28.20;99.90
18593;DHT22;9426;54.118;17.948;2022-08-19T09:04:16;28.30;99.90
18593;DHT22;9426;54.118;17.948;2022-08-19T09:09:42;28.50;99.90
18593;DHT22;9426;54.118;17.948;2022-08-19T09:15:10;28.60;99.90
18593;DHT22;9426;54.118;17.948;2022-08-19T09:20:35;28.80;99.90
18593;DHT22;9426;54.118;17.948;2022-08-19T09:26:00;29.10;99.90
18593;DHT22;9426;54.118;17.948;2022-08-19T09:31:27;29.20;99.90
18593;DHT22;9426;54.118;17.948;2022-08-19T09:36:51;29.30;99.90
18593;DHT22;9426;54.118;17.948;2022-08-19T09:42:17;29.50;99.90
18593;DHT22;9426;54.118;17.948;2022-08-19T09:47:41;29.90;99.90
18593;DHT22;9426;54.118;17.948;2022-08-19T09:53:05;30.30;99.90
18593;DHT22;9426;54.118;17.948;2022-08-19T09:58:29;30.80;99.90
18593;DHT22;9426;54.118;17.948;2022-08-19T10:03:55;31.00;99.90
18593;DHT22;9426;54.118;17.948;2022-08-19T10:09:18;30.60;99.90
18593;DHT22;9426;54.118;17.948;2022-08-19T10:14:41;30.90;99.90
18593;DHT22;9426;54.118;17.948;2022-08-19T10:20:06;31.10;99.90
18593;DHT22;9426;54.118;17.948;2022-08-19T10:25:29;31.50;99.90
18593;DHT22;9426;54.118;17.948;2022-08-19T10:30:53;31.60;99.90
18593;DHT22;9426;54.118;17.948;2022-08-19T10:36:20;31.40;99.90
18593;DHT22;9426;54.118;17.948;2022-08-19T10:41:43;31.40;99.90
18593;DHT22;9426;54.118;17.948;2022-08-19T10:47:07;31.60;99.90
18593;DHT22;9426;54.118;17.948;2022-08-19T10:52:31;31.60;99.90
18593;DHT22;9426;54.118;17.948;2022-08-19T10:57:56;31.90;99.90
18593;DHT22;9426;54.118;17.948;2022-08-19T11:03:22;32.30;99.90
18593;DHT22;9426;54.118;17.948;2022-08-19T11:08:47;32.60;99.90
18593;DHT22;9426;54.118;17.948;2022-08-19T11:14:12;32.70;99.90
18593;DHT22;9426;54.118;17.948;2022-08-19T11:19:35;32.00;99.90
18593;DHT22;9426;54.118;17.948;2022-08-19T11:25:00;31.10;99.90
18593;DHT22;9426;54.118;17.948;2022-08-19T11:30:24;31.00;99.90
18593;DHT22;9426;54.118;17.948;2022-08-19T11:35:49;31.60;99.90
18593;DHT22;9426;54.118;17.948;2022-08-19T11:41:16;31.00;99.90
18593;DHT22;9426;54.118;17.948;2022-08-19T11:46:41;30.60;99.90
18593;DHT22;9426;54.118;17.948;2022-08-19T11:52:07;30.30;99.90
18593;DHT22;9426;54.118;17.948;2022-08-19T11:57:32;31.30;99.90
18593;DHT22;9426;54.118;17.948;2022-08-19T12:02:55;31.10;99.90
18593;DHT22;9426;54.118;17.948;2022-08-19T12:08:18;31.20;99.90
18593;DHT22;9426;54.118;17.948;2022-08-19T12:13:43;31.40;99.90
18593;DHT22;9426;54.118;17.948;2022-08-19T12:19:07;31.50;99.20
18593;DHT22;9426;54.118;17.948;2022-08-19T12:24:31;31.80;99.20
18593;DHT22;9426;54.118;17.948;2022-08-19T12:29:56;34.10;94.60
18593;DHT22;9426;54.118;17.948;2022-08-19T12:35:20;35.70;90.70
18593;DHT22;9426;54.118;17.948;2022-08-19T12:40:46;36.60;85.20
18593;DHT22;9426;54.118;17.948;2022-08-19T12:46:12;37.70;76.20
18593;DHT22;9426;54.118;17.948;2022-08-19T12:51:36;37.70;70.40
18593;DHT22;9426;54.118;17.948;2022-08-19T12:56:59;38.10;68.90
18593;DHT22;9426;54.118;17.948;2022-08-19T13:02:28;38.50;64.40
18593;DHT22;9426;54.118;17.948;2022-08-19T13:07:55;38.40;63.20
18593;DHT22;9426;54.118;17.948;2022-08-19T13:13:18;37.80;62.70
18593;DHT22;9426;54.118;17.948;2022-08-19T13:18:45;37.90;62.90
18593;DHT22;9426;54.118;17.948;2022-08-19T13:24:09;37.80;61.10
18593;DHT22;9426;54.118;17.948;2022-08-19T13:29:32;38.30;60.10
18593;DHT22;9426;54.118;17.948;2022-08-19T13:35:13;38.30;59.00
18593;DHT22;9426;54.118;17.948;2022-08-19T13:40:37;37.00;61.70
18593;DHT22;9426;54.118;17.948;2022-08-19T13:46:09;35.70;64.70
18593;DHT22;9426;54.118;17.948;2022-08-19T13:51:37;35.00;67.80
18593;DHT22;9426;54.118;17.948;2022-08-19T13:57:01;37.20;63.20
18593;DHT22;9426;54.118;17.948;2022-08-19T14:02:24;38.50;60.20
18593;DHT22;9426;54.118;17.948;2022-08-19T14:07:49;39.60;58.40
18593;DHT22;9426;54.118;17.948;2022-08-19T14:13:15;39.70;57.80
18593;DHT22;9426;54.118;17.948;2022-08-19T14:18:39;38.20;58.70
18593;DHT22;9426;54.118;17.948;2022-08-19T14:24:04;36.10;61.70
18593;DHT22;9426;54.118;17.948;2022-08-19T14:29:27;34.70;65.60
18593;DHT22;9426;54.118;17.948;2022-08-19T14:34:50;33.90;67.30
18593;DHT22;9426;54.118;17.948;2022-08-19T14:40:17;33.40;69.90
18593;DHT22;9426;54.118;17.948;2022-08-19T14:45:41;34.00;69.60
18593;DHT22;9426;54.118;17.948;2022-08-19T14:51:05;34.40;68.20
18593;DHT22;9426;54.118;17.948;2022-08-19T14:56:29;34.60;68.00
18593;DHT22;9426;54.118;17.948;2022-08-19T15:01:52;35.30;68.50
18593;DHT22;9426;54.118;17.948;2022-08-19T15:07:15;35.80;66.00
18593;DHT22;9426;54.118;17.948;2022-08-19T15:12:40;34.70;67.30
18593;DHT22;9426;54.118;17.948;2022-08-19T15:18:04;34.40;68.80
18593;DHT22;9426;54.118;17.948;2022-08-19T15:23:27;34.50;69.20
18593;DHT22;9426;54.118;17.948;2022-08-19T15:28:51;33.90;69.40
18593;DHT22;9426;54.118;17.948;2022-08-19T15:34:14;33.00;71.70
18593;DHT22;9426;54.118;17.948;2022-08-19T15:39:37;33.30;70.50
18593;DHT22;9426;54.118;17.948;2022-08-19T15:45:02;33.00;71.20
18593;DHT22;9426;54.118;17.948;2022-08-19T15:50:26;33.20;71.90
18593;DHT22;9426;54.118;17.948;2022-08-19T15:55:49;33.50;72.40
18593;DHT22;9426;54.118;17.948;2022-08-19T16:01:13;33.20;71.40
18593;DHT22;9426;54.118;17.948;2022-08-19T16:07:08;32.90;70.80
18593;DHT22;9426;54.118;17.948;2022-08-19T16:12:33;33.20;72.30
18593;DHT22;9426;54.118;17.948;2022-08-19T16:17:57;33.00;72.10
18593;DHT22;9426;54.118;17.948;2022-08-19T16:23:23;32.60;73.80
18593;DHT22;9426;54.118;17.948;2022-08-19T16:28:46;32.60;73.30
18593;DHT22;9426;54.118;17.948;2022-08-19T16:34:12;32.60;73.70
18593;DHT22;9426;54.118;17.948;2022-08-19T16:39:35;32.30;74.70
18593;DHT22;9426;54.118;17.948;2022-08-19T16:44:58;31.80;76.10
18593;DHT22;9426;54.118;17.948;2022-08-19T16:50:24;31.10;78.30
18593;DHT22;9426;54.118;17.948;2022-08-19T16:55:59;30.40;81.20
18593;DHT22;9426;54.118;17.948;2022-08-19T17:01:22;30.00;84.20
18593;DHT22;9426;54.118;17.948;2022-08-19T17:06:46;29.80;85.00
18593;DHT22;9426;54.118;17.948;2022-08-19T17:12:09;29.60;87.70
18593;DHT22;9426;54.118;17.948;2022-08-19T17:17:33;29.30;89.00
18593;DHT22;9426;54.118;17.948;2022-08-19T17:22:59;29.10;90.30
18593;DHT22;9426;54.118;17.948;2022-08-19T17:28:25;28.80;91.00
18593;DHT22;9426;54.118;17.948;2022-08-19T17:33:48;28.40;92.70
18593;DHT22;9426;54.118;17.948;2022-08-19T17:39:13;28.10;94.50
18593;DHT22;9426;54.118;17.948;2022-08-19T17:44:36;27.70;97.70
18593;DHT22;9426;54.118;17.948;2022-08-19T17:49:59;27.50;99.90
18593;DHT22;9426;54.118;17.948;2022-08-19T17:55:24;27.30;99.90
18593;DHT22;9426;54.118;17.948;2022-08-19T18:00:47;27.10;99.90
18593;DHT22;9426;54.118;17.948;2022-08-19T18:06:10;26.90;99.90
18593;DHT22;9426;54.118;17.948;2022-08-19T18:11:36;26.60;99.90
18593;DHT22;9426;54.118;17.948;2022-08-19T18:17:00;26.50;99.90
18593;DHT22;9426;54.118;17.948;2022-08-19T18:22:28;26.40;99.90
18593;DHT22;9426;54.118;17.948;2022-08-19T18:27:54;26.30;99.90
18593;DHT22;9426;54.118;17.948;2022-08-19T18:33:18;26.30;99.90
18593;DHT22;9426;54.118;17.948;2022-08-19T18:38:41;26.30;99.90
18593;DHT22;9426;54.118;17.948;2022-08-19T18:44:25;26.30;99.90
18593;DHT22;9426;54.118;17.948;2022-08-19T18:50:06;26.50;99.90
18593;DHT22;9426;54.118;17.948;2022-08-19T18:55:34;26.60;99.90
18593;DHT22;9426;54.118;17.948;2022-08-19T19:01:05;26.50;99.90
18593;DHT22;9426;54.118;17.948;2022-08-19T19:06:34;26.40;99.90
18593;DHT22;9426;54.118;17.948;2022-08-19T19:12:01;26.20;99.90
18593;DHT22;9426;54.118;17.948;2022-08-19T19:17:26;26.00;99.90
18593;DHT22;9426;54.118;17.948;2022-08-19T19:22:49;26.10;99.90
18593;DHT22;9426;54.118;17.948;2022-08-19T19:28:12;26.20;99.90
18593;DHT22;9426;54.118;17.948;2022-08-19T19:33:36;26.40;99.90
18593;DHT22;9426;54.118;17.948;2022-08-19T19:38:59;26.30;99.90
18593;DHT22;9426;54.118;17.948;2022-08-19T19:44:22;26.20;99.90
18593;DHT22;9426;54.118;17.948;2022-08-19T19:49:47;26.00;99.90
18593;DHT22;9426;54.118;17.948;2022-08-19T19:55:31;25.80;99.90
18593;DHT22;9426;54.118;17.948;2022-08-19T20:00:55;25.60;99.90
18593;DHT22;9426;54.118;17.948;2022-08-19T20:06:21;25.50;99.90
18593;DHT22;9426;54.118;17.948;2022-08-19T20:11:46;25.50;99.90
18593;DHT22;9426;54.118;17.948;2022-08-19T20:17:09;25.70;99.90
18593;DHT22;9426;54.118;17.948;2022-08-19T20:22:36;25.90;99.90
18593;DHT22;9426;54.118;17.948;2022-08-19T20:28:00;26.10;99.90
18593;DHT22;9426;54.118;17.948;2022-08-19T20:33:26;26.20;99.90
18593;DHT22;9426;54.118;17.948;2022-08-19T20:38:51;26.00;99.90
18593;DHT22;9426;54.118;17.948;2022-08-19T20:44:14;26.00;99.90
18593;DHT22;9426;54.118;17.948;2022-08-19T20:49:37;25.90;99.90
18593;DHT22;9426;54.118;17.948;2022-08-19T20:55:01;25.70;99.90
18593;DHT22;9426;54.118;17.948;2022-08-19T21:00:24;25.70;99.90
18593;DHT22;9426;54.118;17.948;2022-08-19T21:05:49;25.70;99.90
18593;DHT22;9426;54.118;17.948;2022-08-19T21:11:14;25.60;99.90
18593;DHT22;9426;54.118;17.948;2022-08-19T21:16:37;25.50;99.90
18593;DHT22;9426;54.118;17.948;2022-08-19T21:22:00;25.30;99.90
18593;DHT22;9426;54.118;17.948;2022-08-19T21:27:25;25.10;99.90
18593;DHT22;9426;54.118;17.948;2022-08-19T21:32:48;25.00;99.90
18593;DHT22;9426;54.118;17.948;2022-08-19T21:38:12;24.70;99.90
18593;DHT22;9426;54.118;17.948;2022-08-19T21:43:38;24.50;99.90
18593;DHT22;9426;54.118;17.948;2022-08-19T21:49:00;24.30;99.90
18593;DHT22;9426;54.118;17.948;2022-08-19T21:54:23;24.10;99.90
18593;DHT22;9426;54.118;17.948;2022-08-19T21:59:48;23.70;99.90
18593;DHT22;9426;54.118;17.948;2022-08-19T22:05:14;23.50;99.90
18593;DHT22;9426;54.118;17.948;2022-08-19T22:10:37;23.50;99.90
18593;DHT22;9426;54.118;17.948;2022-08-19T22:16:02;23.40;99.90
18593;DHT22;9426;54.118;17.948;2022-08-19T22:21:26;23.40;99.90
18593;DHT22;9426;54.118;17.948;2022-08-19T22:26:49;23.30;99.90
18593;DHT22;9426;54.118;17.948;2022-08-19T22:32:13;23.40;99.90
18593;DHT22;9426;54.118;17.948;2022-08-19T22:37:38;23.70;99.90
18593;DHT22;9426;54.118;17.948;2022-08-19T22:43:04;23.90;99.90
18593;DHT22;9426;54.118;17.948;2022-08-19T22:48:29;23.90;99.90
18593;DHT22;9426;54.118;17.948;2022-08-19T22:53:54;23.90;99.90
18593;DHT22;9426;54.118;17.948;2022-08-19T22:59:18;23.80;99.90
18593;DHT22;9426;54.118;17.948;2022-08-19T23:04:43;23.70;99.90
18593;DHT22;9426;54.118;17.948;2022-08-19T23:10:08;23.60;99.90
18593;DHT22;9426;54.118;17.948;2022-08-19T23:15:34;23.50;99.90
18593;DHT22;9426;54.118;17.948;2022-08-19T23:21:15;23.40;99.90
18593;DHT22;9426;54.118;17.948;2022-08-19T23:26:40;23.40;99.90
18593;DHT22;9426;54.118;17.948;2022-08-19T23:32:25;23.40;99.90
18593;DHT22;9426;54.118;17.948;2022-08-19T23:37:50;23.30;99.90
18593;DHT22;9426;54.118;17.948;2022-08-19T23:43:13;23.30;99.90
18593;DHT22;9426;54.118;17.948;2022-08-19T23:48:38;23.20;99.90
18593;DHT22;9426;54.118;17.948;2022-08-19T23:54:03;23.10;99.90
18593;DHT22;9426;54.118;17.948;2022-08-19T23:59:27;23.00;99.90
